createdAt,value
2023-04-16T00:00:37.292Z,20.92
2023-04-16T00:03:04.172Z,21.13
2023-04-16T00:05:30.841Z,21.42
2023-04-16T00:07:57.224Z,20.17
2023-04-16T00:10:23.683Z,21.38
2023-04-16T00:12:50.041Z,21.73
2023-04-16T00:15:16.377Z,20.88
2023-04-16T00:17:42.794Z,22.48
2023-04-16T00:20:09.766Z,20.83
2023-04-16T00:22:36.139Z,21.15
2023-04-16T00:25:02.485Z,23.77
2023-04-16T00:27:28.918Z,22.63
2023-04-16T00:29:55.390Z,22.73
2023-04-16T00:32:21.813Z,24.17
2023-04-16T00:34:48.220Z,23.48
2023-04-16T00:37:14.623Z,23.30
2023-04-16T00:39:40.964Z,23.33
2023-04-16T00:42:07.328Z,25.02
2023-04-16T00:44:36.552Z,23.83
2023-04-16T00:47:03.373Z,22.98
2023-04-16T00:49:31.006Z,22.55
2023-04-16T00:51:57.616Z,23.38
2023-04-16T00:54:25.291Z,23.02
2023-04-16T00:56:51.839Z,23.77
2023-04-16T00:59:18.561Z,22.52
2023-04-16T01:01:44.954Z,21.98
2023-04-16T01:04:11.530Z,22.17
2023-04-16T01:06:38.010Z,22.52
2023-04-16T01:09:05.564Z,22.00
2023-04-16T01:11:32.048Z,22.52
2023-04-16T01:13:58.492Z,21.42
2023-04-16T01:16:26.663Z,20.88
2023-04-16T01:18:53.099Z,21.60
2023-04-16T01:21:19.482Z,22.30
2023-04-16T01:23:45.904Z,20.58
2023-04-16T01:26:12.336Z,20.10
2023-04-16T01:28:38.757Z,20.35
2023-04-16T01:31:05.267Z,19.35
2023-04-16T01:33:31.704Z,20.08
2023-04-16T01:35:58.039Z,19.90
2023-04-16T01:38:24.466Z,19.90
2023-04-16T01:40:55.474Z,20.05
2023-04-16T01:43:21.849Z,18.40
2023-04-16T01:45:48.258Z,19.15
2023-04-16T01:48:14.648Z,18.70
2023-04-16T01:50:41.569Z,21.17
2023-04-16T01:53:09.550Z,19.63
2023-04-16T01:55:36.145Z,19.85
2023-04-16T01:58:02.526Z,22.15
2023-04-16T02:00:28.986Z,21.75
2023-04-16T02:02:55.724Z,21.35
2023-04-16T02:05:22.291Z,20.55
2023-04-16T02:07:48.648Z,21.88
2023-04-16T02:10:15.168Z,21.95
2023-04-16T02:12:41.565Z,22.95
2023-04-16T02:15:08.346Z,22.83
2023-04-16T02:17:34.775Z,23.23
2023-04-16T02:20:03.333Z,23.65
2023-04-16T02:22:29.748Z,23.52
2023-04-16T02:24:56.071Z,22.42
2023-04-16T02:27:22.441Z,24.45
2023-04-16T02:29:48.804Z,25.13
2023-04-16T02:32:15.283Z,25.58
2023-04-16T02:34:42.950Z,24.05
2023-04-16T02:37:09.305Z,24.90
2023-04-16T02:39:35.711Z,26.60
2023-04-16T02:42:02.654Z,24.77
2023-04-16T02:44:29.240Z,26.02
2023-04-16T02:46:55.583Z,26.17
2023-04-16T02:49:21.945Z,28.02
2023-04-16T02:51:48.336Z,26.35
2023-04-16T02:54:14.684Z,28.27
2023-04-16T02:56:41.011Z,27.95
2023-04-16T02:59:07.539Z,26.63
2023-04-16T03:01:34.202Z,27.15
2023-04-16T03:04:00.626Z,26.08
2023-04-16T03:06:27.038Z,28.60
2023-04-16T03:08:53.413Z,27.85
2023-04-16T03:11:20.334Z,28.73
2023-04-16T03:13:46.704Z,27.90
2023-04-16T03:16:13.043Z,29.50
2023-04-16T03:18:39.403Z,29.10
2023-04-16T03:21:06.213Z,30.55
2023-04-16T03:23:32.620Z,31.67
2023-04-16T03:25:59.035Z,30.45
2023-04-16T03:28:26.130Z,31.08
2023-04-16T03:30:53.567Z,31.10
2023-04-16T03:33:20.817Z,30.13
2023-04-16T03:35:47.248Z,31.42
2023-04-16T03:38:13.675Z,32.22
2023-04-16T03:40:40.061Z,31.98
2023-04-16T03:43:06.567Z,32.17
2023-04-16T03:45:32.889Z,32.25
2023-04-16T03:47:59.327Z,32.63
2023-04-16T03:50:25.717Z,32.20
2023-04-16T03:52:52.064Z,33.95
2023-04-16T03:55:18.420Z,32.58
2023-04-16T03:57:44.866Z,33.20
2023-04-16T04:00:11.757Z,33.60
2023-04-16T04:02:38.309Z,33.88
2023-04-16T04:05:05.118Z,32.00
2023-04-16T04:07:31.591Z,33.35
2023-04-16T04:09:58.048Z,33.83
2023-04-16T04:12:24.433Z,32.17
2023-04-16T04:14:50.754Z,31.33
2023-04-16T04:17:17.141Z,32.50
2023-04-16T04:19:54.266Z,32.70
2023-04-16T04:22:26.607Z,32.67
2023-04-16T04:24:52.947Z,32.35
2023-04-16T04:27:19.313Z,30.80
2023-04-16T04:29:46.142Z,32.85
2023-04-16T04:32:12.519Z,32.85
2023-04-16T04:34:38.896Z,32.25
2023-04-16T04:37:05.620Z,33.08
2023-04-16T04:39:32.006Z,33.20
2023-04-16T04:41:58.413Z,32.45
2023-04-16T04:44:24.743Z,32.95
2023-04-16T04:46:51.112Z,32.05
2023-04-16T04:49:17.510Z,33.30
2023-04-16T04:51:43.945Z,31.23
2023-04-16T04:54:10.450Z,30.58
2023-04-16T04:56:36.872Z,31.15
2023-04-16T04:59:03.272Z,31.23
2023-04-16T05:01:29.709Z,31.55
2023-04-16T05:03:56.231Z,32.45
2023-04-16T05:06:22.594Z,32.80
2023-04-16T05:08:48.952Z,31.02
2023-04-16T05:11:15.766Z,31.02
2023-04-16T05:13:42.121Z,32.28
2023-04-16T05:16:08.479Z,32.55
2023-04-16T05:18:34.893Z,31.83
2023-04-16T05:21:01.244Z,32.13
2023-04-16T05:23:27.808Z,33.55
2023-04-16T05:25:54.202Z,33.15
2023-04-16T05:28:20.635Z,35.53
2023-04-16T05:30:47.085Z,34.58
2023-04-16T05:33:13.523Z,34.33
2023-04-16T05:35:39.947Z,33.08
2023-04-16T05:38:06.287Z,34.38
2023-04-16T05:40:32.735Z,32.42
2023-04-16T05:42:59.132Z,30.85
2023-04-16T05:45:27.427Z,30.42
2023-04-16T05:47:54.462Z,31.27
2023-04-16T05:50:20.896Z,29.38
2023-04-16T05:52:47.236Z,27.40
2023-04-16T05:55:13.666Z,26.42
2023-04-16T05:57:40.309Z,23.33
2023-04-16T06:00:08.979Z,25.02
2023-04-16T06:02:35.583Z,24.02
2023-04-16T06:05:02.197Z,23.02
2023-04-16T06:07:28.582Z,23.20
2023-04-16T06:09:55.024Z,23.52
2023-04-16T06:12:21.404Z,22.85
2023-04-16T06:14:47.762Z,23.38
2023-04-16T06:17:14.169Z,23.48
2023-04-16T06:19:40.699Z,22.77
2023-04-16T06:22:07.461Z,22.55
2023-04-16T06:24:33.991Z,22.27
2023-04-16T06:27:00.690Z,22.10
2023-04-16T06:29:33.664Z,24.27
2023-04-16T06:32:04.003Z,21.30
2023-04-16T06:34:30.694Z,22.17
2023-04-16T06:36:57.021Z,22.25
2023-04-16T06:39:23.388Z,20.75
2023-04-16T06:41:49.912Z,20.92
2023-04-16T06:44:16.344Z,21.13
2023-04-16T06:46:42.788Z,20.08
2023-04-16T06:49:09.412Z,20.30
2023-04-16T06:51:36.091Z,20.55
2023-04-16T06:54:02.415Z,21.55
2023-04-16T06:56:28.769Z,20.73
2023-04-16T06:58:57.016Z,20.23
2023-04-16T07:01:23.639Z,19.70
2023-04-16T07:03:50.772Z,19.77
2023-04-16T07:06:17.409Z,19.40
2023-04-16T07:08:43.805Z,18.50
2023-04-16T07:11:10.251Z,17.55
2023-04-16T07:13:36.610Z,17.27
2023-04-16T07:16:03.042Z,17.98
2023-04-16T07:18:29.448Z,18.50
2023-04-16T07:20:56.009Z,17.25
2023-04-16T07:23:22.371Z,18.05
2023-04-16T07:25:48.780Z,17.10
2023-04-16T07:28:17.491Z,17.75
2023-04-16T07:30:43.954Z,17.45
2023-04-16T07:33:10.596Z,18.60
2023-04-16T07:35:37.013Z,18.70
2023-04-16T07:38:03.421Z,17.52
2023-04-16T07:40:29.850Z,18.63
2023-04-16T07:42:56.386Z,20.23
2023-04-16T07:45:23.512Z,19.00
2023-04-16T07:47:49.931Z,16.13
2023-04-16T07:50:16.474Z,18.40
2023-04-16T07:52:43.675Z,18.50
2023-04-16T07:55:10.073Z,18.48
2023-04-16T07:57:37.046Z,18.48
2023-04-16T08:00:07.081Z,17.98
2023-04-16T08:02:33.642Z,17.75
2023-04-16T08:05:00.458Z,18.02
2023-04-16T08:07:27.030Z,17.40
2023-04-16T08:09:54.094Z,18.40
2023-04-16T08:12:21.114Z,17.42
2023-04-16T08:14:47.847Z,17.85
2023-04-16T08:17:17.242Z,17.95
2023-04-16T08:19:47.259Z,18.60
2023-04-16T08:22:13.777Z,17.80
2023-04-16T08:24:40.178Z,17.67
2023-04-16T08:27:17.845Z,16.98
2023-04-16T08:29:45.423Z,18.15
2023-04-16T08:32:11.917Z,17.65
2023-04-16T08:34:38.464Z,17.13
2023-04-16T08:37:05.102Z,18.10
2023-04-16T08:39:31.601Z,16.67
2023-04-16T08:41:58.914Z,16.40
2023-04-16T08:44:32.372Z,17.13
2023-04-16T08:46:59.378Z,17.50
2023-04-16T08:49:27.186Z,16.30
2023-04-16T08:51:57.270Z,17.55
2023-04-16T08:54:56.773Z,16.40
2023-04-16T08:57:25.749Z,16.67
2023-04-16T08:59:56.063Z,16.55
2023-04-16T09:02:23.350Z,16.17
2023-04-16T09:04:51.201Z,16.27
2023-04-16T09:07:21.022Z,17.35
2023-04-16T09:09:49.833Z,16.52
2023-04-16T09:12:17.711Z,16.00
2023-04-16T09:14:49.603Z,14.65
2023-04-16T09:17:17.200Z,15.57
2023-04-16T09:19:44.492Z,15.98
2023-04-16T09:22:11.872Z,15.18
2023-04-16T09:24:41.951Z,16.73
2023-04-16T09:27:08.811Z,15.63
2023-04-16T09:29:36.277Z,15.23
2023-04-16T09:32:08.137Z,15.38
2023-04-16T09:34:36.054Z,15.38
2023-04-16T09:37:15.828Z,15.50
2023-04-16T09:39:54.076Z,15.00
2023-04-16T09:42:25.376Z,14.85
2023-04-16T09:44:52.963Z,14.90
2023-04-16T09:47:19.556Z,16.52
2023-04-16T09:49:47.085Z,15.88
2023-04-16T09:52:22.205Z,14.75
2023-04-16T09:54:50.275Z,15.90
2023-04-16T09:57:21.960Z,15.45
2023-04-16T10:00:05.795Z,15.80
2023-04-16T10:02:33.150Z,15.23
2023-04-16T10:05:01.699Z,15.43
2023-04-16T10:07:29.435Z,16.42
2023-04-16T10:09:56.022Z,14.90
2023-04-16T10:12:22.510Z,15.57
2023-04-16T10:14:50.483Z,15.20
2023-04-16T10:17:17.620Z,15.93
2023-04-16T10:19:44.377Z,15.48
2023-04-16T10:22:11.327Z,15.50
2023-04-16T10:24:38.628Z,15.80
2023-04-16T10:27:04.990Z,14.90
2023-04-16T10:29:32.823Z,14.77
2023-04-16T10:31:59.845Z,16.33
2023-04-16T10:34:27.047Z,15.73
2023-04-16T10:36:54.933Z,15.60
2023-04-16T10:39:23.904Z,14.32
2023-04-16T10:42:06.112Z,14.00
2023-04-16T10:44:32.908Z,13.40
2023-04-16T10:46:59.486Z,14.38
2023-04-16T10:49:27.067Z,13.77
2023-04-16T10:52:04.623Z,14.18
2023-04-16T10:54:32.020Z,13.88
2023-04-16T10:57:04.314Z,14.00
2023-04-16T10:59:33.569Z,14.45
2023-04-16T11:02:01.846Z,14.23
2023-04-16T11:04:33.253Z,13.73
2023-04-16T11:07:13.764Z,13.75
2023-04-16T11:09:59.320Z,14.82
2023-04-16T11:12:42.665Z,14.15
2023-04-16T11:15:13.160Z,13.38
2023-04-16T11:17:46.657Z,14.35
2023-04-16T11:20:19.987Z,14.18
2023-04-16T11:22:48.980Z,13.55
2023-04-16T11:25:23.101Z,12.57
2023-04-16T11:27:50.319Z,12.85
2023-04-16T11:30:18.793Z,11.52
2023-04-16T11:32:45.580Z,12.43
2023-04-16T11:35:16.173Z,12.65
2023-04-16T11:37:43.139Z,11.73
2023-04-16T11:40:10.425Z,12.38
2023-04-16T11:42:40.338Z,12.68
2023-04-16T11:45:08.428Z,13.45
2023-04-16T11:47:52.053Z,11.93
2023-04-16T11:50:25.516Z,12.75
2023-04-16T11:52:54.011Z,12.07
2023-04-16T11:55:21.228Z,11.20
2023-04-16T11:57:48.211Z,11.57
2023-04-16T12:00:15.564Z,11.10
2023-04-16T12:02:49.647Z,11.20
2023-04-16T12:05:34.813Z,10.30
2023-04-16T12:08:06.391Z,9.85
2023-04-16T12:10:35.508Z,10.82
2023-04-16T12:13:12.939Z,10.07
2023-04-16T12:15:56.950Z,9.68
2023-04-16T12:18:26.834Z,9.95
2023-04-16T12:20:53.541Z,9.43
2023-04-16T12:23:30.489Z,9.55
2023-04-16T12:26:02.373Z,9.50
2023-04-16T12:28:34.269Z,10.15
2023-04-16T12:31:01.995Z,10.02
2023-04-16T12:33:28.725Z,8.90
2023-04-16T12:35:55.191Z,8.98
2023-04-16T12:38:24.070Z,9.10
2023-04-16T12:40:51.034Z,9.00
2023-04-16T12:43:17.860Z,8.60
2023-04-16T12:45:44.587Z,9.27
2023-04-16T12:48:11.476Z,9.18
2023-04-16T12:50:39.606Z,8.98
2023-04-16T12:53:06.212Z,9.68
2023-04-16T12:55:32.612Z,9.18
2023-04-16T12:57:58.996Z,9.40
2023-04-16T13:00:25.428Z,8.95
2023-04-16T13:02:51.942Z,9.27
2023-04-16T13:05:19.252Z,9.00
2023-04-16T13:07:46.022Z,9.73
2023-04-16T13:10:12.815Z,8.65
2023-04-16T13:12:39.173Z,9.70
2023-04-16T13:15:05.923Z,9.25
2023-04-16T13:17:32.306Z,9.65
2023-04-16T13:19:58.715Z,8.50
2023-04-16T13:22:25.159Z,8.88
2023-04-16T13:24:51.707Z,8.88
2023-04-16T13:27:18.189Z,9.10
2023-04-16T13:29:44.798Z,9.90
2023-04-16T13:32:13.618Z,9.23
2023-04-16T13:34:40.260Z,9.60
2023-04-16T13:37:06.760Z,9.52
2023-04-16T13:39:33.628Z,9.25
2023-04-16T13:42:00.277Z,9.68
2023-04-16T13:44:26.651Z,10.05
2023-04-16T13:46:53.190Z,10.43
2023-04-16T13:49:19.627Z,9.43
2023-04-16T13:51:46.014Z,10.50
2023-04-16T13:54:12.366Z,10.20
2023-04-16T13:56:39.382Z,9.85
2023-04-16T13:59:05.917Z,9.85
2023-04-16T14:01:32.598Z,10.13
2023-04-16T14:04:00.192Z,11.02
2023-04-16T14:06:26.963Z,10.43
2023-04-16T14:08:53.318Z,10.18
2023-04-16T14:11:19.727Z,11.52
2023-04-16T14:13:46.713Z,10.63
2023-04-16T14:16:13.884Z,10.60
2023-04-16T14:18:42.220Z,10.75
2023-04-16T14:21:09.054Z,10.77
2023-04-16T14:23:35.544Z,10.98
2023-04-16T14:26:01.917Z,10.00
2023-04-16T14:28:28.358Z,11.18
2023-04-16T14:30:54.740Z,10.85
2023-04-16T14:33:21.216Z,10.82
2023-04-16T14:35:47.745Z,11.07
2023-04-16T14:38:14.087Z,10.77
2023-04-16T14:40:40.602Z,11.45
2023-04-16T14:43:07.069Z,11.88
2023-04-16T14:45:33.475Z,11.15
2023-04-16T14:47:59.919Z,10.65
2023-04-16T14:50:26.377Z,11.02
2023-04-16T14:52:54.465Z,10.52
2023-04-16T14:55:21.353Z,10.27
2023-04-16T14:57:47.749Z,10.35
2023-04-16T15:00:17.553Z,10.38
2023-04-16T15:02:44.726Z,10.15
2023-04-16T15:05:11.379Z,10.20
2023-04-16T15:07:37.789Z,9.75
2023-04-16T15:10:04.659Z,9.68
2023-04-16T15:12:31.213Z,9.40
2023-04-16T15:14:57.620Z,10.27
2023-04-16T15:17:24.076Z,9.02
2023-04-16T15:19:52.104Z,8.20
2023-04-16T15:22:18.497Z,9.23
2023-04-16T15:24:45.086Z,8.48
2023-04-16T15:27:12.394Z,9.05
2023-04-16T15:29:38.751Z,8.10
2023-04-16T15:32:06.841Z,8.80
2023-04-16T15:34:33.209Z,8.80
2023-04-16T15:36:59.569Z,8.70
2023-04-16T15:39:25.987Z,7.93
2023-04-16T15:44:22.002Z,7.97
2023-04-16T15:46:48.487Z,6.80
2023-04-16T15:49:14.947Z,6.60
2023-04-16T15:51:41.427Z,6.97
2023-04-16T15:54:07.874Z,7.03
2023-04-16T15:56:34.355Z,7.28
2023-04-16T15:59:03.810Z,7.18
2023-04-16T16:01:31.081Z,7.63
2023-04-16T16:03:57.654Z,10.95
2023-04-16T16:06:24.449Z,24.58
2023-04-16T16:08:51.085Z,10.23
2023-04-16T16:11:17.551Z,8.52
2023-04-16T16:13:43.990Z,7.45
2023-04-16T16:16:10.615Z,7.60
2023-04-16T16:18:37.593Z,6.70
2023-04-16T16:21:03.993Z,6.70
2023-04-16T16:23:30.371Z,7.78
2023-04-16T16:25:56.863Z,7.13
2023-04-16T16:28:24.907Z,7.18
2023-04-16T16:30:53.754Z,7.50
2023-04-16T16:33:20.709Z,7.78
2023-04-16T16:35:47.233Z,6.57
2023-04-16T16:38:13.627Z,7.20
2023-04-16T16:40:39.980Z,7.10
2023-04-16T16:43:06.422Z,7.05
2023-04-16T16:45:32.808Z,9.60
2023-04-16T16:47:59.276Z,10.73
2023-04-16T16:50:25.673Z,12.40
2023-04-16T16:52:52.079Z,14.02
2023-04-16T16:55:18.959Z,12.90
2023-04-16T16:57:45.641Z,13.15
2023-04-16T17:00:16.191Z,11.98
2023-04-16T17:02:43.288Z,11.48
2023-04-16T17:05:09.978Z,10.95
2023-04-16T17:07:36.404Z,11.32
2023-04-16T17:10:05.240Z,11.68
2023-04-16T17:12:33.087Z,10.60
2023-04-16T17:14:59.453Z,11.38
2023-04-16T17:17:26.798Z,11.98
2023-04-16T17:19:53.851Z,12.18
2023-04-16T17:22:20.321Z,11.73
2023-04-16T17:24:47.117Z,12.48
2023-04-16T17:27:13.509Z,11.95
2023-04-16T17:29:39.827Z,12.90
2023-04-16T17:32:06.316Z,12.73
2023-04-16T17:34:32.652Z,14.07
2023-04-16T17:36:58.988Z,14.15
2023-04-16T17:39:25.495Z,15.70
2023-04-16T17:41:54.660Z,15.55
2023-04-16T17:44:22.870Z,13.32
2023-04-16T17:46:49.250Z,14.20
2023-04-16T17:49:15.596Z,14.35
2023-04-16T17:51:44.364Z,13.63
2023-04-16T17:54:10.904Z,14.30
2023-04-16T17:56:37.680Z,14.43
2023-04-16T17:59:04.931Z,14.75
2023-04-16T18:01:31.477Z,15.25
2023-04-16T18:03:58.092Z,15.05
2023-04-16T18:06:24.623Z,15.05
2023-04-16T18:08:50.959Z,14.43
2023-04-16T18:11:17.425Z,15.88
2023-04-16T18:13:43.918Z,16.00
2023-04-16T18:16:16.866Z,15.55
2023-04-16T18:18:44.356Z,16.02
2023-04-16T18:21:11.113Z,15.63
2023-04-16T18:23:37.555Z,17.25
2023-04-16T18:26:04.205Z,18.05
2023-04-16T18:28:30.634Z,16.23
2023-04-16T18:30:58.914Z,16.88
2023-04-16T18:33:38.854Z,18.08
2023-04-16T18:36:11.703Z,17.05
2023-04-16T18:38:46.394Z,17.80
2023-04-16T18:41:20.786Z,17.63
2023-04-16T18:43:47.689Z,17.95
2023-04-16T18:46:14.705Z,17.92
2023-04-16T18:48:41.741Z,18.02
2023-04-16T18:51:08.172Z,17.98
2023-04-16T18:53:34.619Z,17.60
2023-04-16T18:56:01.060Z,17.50
2023-04-16T18:58:27.960Z,16.25
2023-04-16T19:00:58.289Z,16.58
2023-04-16T19:03:27.269Z,16.67
2023-04-16T19:05:53.851Z,17.20
2023-04-16T19:08:20.316Z,17.33
2023-04-16T19:10:48.129Z,16.38
2023-04-16T19:13:14.659Z,16.38
2023-04-16T19:15:41.284Z,17.30
2023-04-16T19:18:07.868Z,16.88
2023-04-16T19:20:37.734Z,16.17
2023-04-16T19:23:05.603Z,15.55
2023-04-16T19:25:32.676Z,16.88
2023-04-16T19:27:59.217Z,15.85
2023-04-16T19:30:26.283Z,15.32
2023-04-16T19:32:55.195Z,16.70
2023-04-16T19:35:22.257Z,16.42
2023-04-16T19:37:48.728Z,14.73
2023-04-16T19:40:15.281Z,15.23
2023-04-16T19:42:41.870Z,16.27
2023-04-16T19:45:08.550Z,15.13
2023-04-16T19:47:34.922Z,15.10
2023-04-16T19:50:01.448Z,14.80
2023-04-16T19:52:27.914Z,14.95
2023-04-16T19:54:54.293Z,15.20
2023-04-16T19:57:20.654Z,15.05
2023-04-16T19:59:46.998Z,15.32
2023-04-16T20:02:13.454Z,14.10
2023-04-16T20:04:39.811Z,15.43
2023-04-16T20:07:06.333Z,13.27
2023-04-16T20:09:32.715Z,13.60
2023-04-16T20:11:59.036Z,14.90
2023-04-16T20:14:25.568Z,13.45
2023-04-16T20:16:52.042Z,13.43
2023-04-16T20:19:19.481Z,12.95
2023-04-16T20:21:46.068Z,14.27
2023-04-16T20:24:12.560Z,14.63
2023-04-16T20:26:38.960Z,14.85
2023-04-16T20:29:05.290Z,13.77
2023-04-16T20:31:31.718Z,14.18
2023-04-16T20:33:58.145Z,14.90
2023-04-16T20:36:24.504Z,15.18
2023-04-16T20:38:53.767Z,15.65
2023-04-16T20:41:21.232Z,14.43
2023-04-16T20:43:50.163Z,14.55
2023-04-16T20:46:17.853Z,14.45
2023-04-16T20:48:44.432Z,16.45
2023-04-16T20:51:10.793Z,15.68
2023-04-16T20:53:37.396Z,15.68
2023-04-16T20:56:03.976Z,15.77
2023-04-16T20:58:30.644Z,17.33
2023-04-16T21:00:57.557Z,16.30
2023-04-16T21:03:24.856Z,16.73
2023-04-16T21:05:53.312Z,17.95
2023-04-16T21:08:20.964Z,17.95
2023-04-16T21:10:47.930Z,18.40
2023-04-16T21:13:14.860Z,19.45
2023-04-16T21:15:43.067Z,19.10
2023-04-16T21:18:10.337Z,17.80
2023-04-16T21:20:37.216Z,19.08
2023-04-16T21:23:04.447Z,19.20
2023-04-16T21:25:31.102Z,18.73
2023-04-16T21:27:57.714Z,19.52
2023-04-16T21:30:24.077Z,18.90
2023-04-16T21:32:50.644Z,18.92
2023-04-16T21:35:17.240Z,19.20
2023-04-16T21:37:43.563Z,19.45
2023-04-16T21:40:10.265Z,19.58
2023-04-16T21:42:41.965Z,21.00
2023-04-16T21:45:09.603Z,20.40
2023-04-16T21:47:36.821Z,21.08
2023-04-16T21:50:03.954Z,20.85
2023-04-16T21:52:32.708Z,21.45
2023-04-16T21:55:00.065Z,20.88
2023-04-16T21:57:26.403Z,23.17
2023-04-16T21:59:52.768Z,22.80
2023-04-16T22:02:19.321Z,24.42
2023-04-16T22:04:45.877Z,24.02
2023-04-16T22:07:12.248Z,22.63
2023-04-16T22:09:38.898Z,24.27
2023-04-16T22:12:11.956Z,26.55
2023-04-16T22:14:44.068Z,24.38
2023-04-16T22:17:12.822Z,24.50
2023-04-16T22:19:39.434Z,23.55
2023-04-16T22:22:05.804Z,25.23
2023-04-16T22:24:32.261Z,24.77
2023-04-16T22:26:58.876Z,25.85
2023-04-16T22:29:25.354Z,25.88
2023-04-16T22:31:52.200Z,25.98
2023-04-16T22:34:18.692Z,27.02
2023-04-16T22:36:45.196Z,26.83
2023-04-16T22:39:11.710Z,28.15
2023-04-16T22:41:38.211Z,27.38
2023-04-16T22:44:04.735Z,27.75
2023-04-16T22:46:31.317Z,27.48
2023-04-16T22:48:57.903Z,26.83
2023-04-16T22:51:24.512Z,26.95
2023-04-16T22:53:51.780Z,26.40
2023-04-16T22:56:21.346Z,26.75
2023-04-16T22:58:50.987Z,27.75
2023-04-16T23:01:17.464Z,27.15
2023-04-16T23:03:44.032Z,29.77
2023-04-16T23:06:10.523Z,27.58
2023-04-16T23:08:36.893Z,29.88
2023-04-16T23:11:03.415Z,27.98
2023-04-16T23:13:29.824Z,27.95
2023-04-16T23:15:56.234Z,27.98
2023-04-16T23:18:22.878Z,27.92
2023-04-16T23:20:52.846Z,27.77
2023-04-16T23:23:19.678Z,28.05
2023-04-16T23:25:46.092Z,29.95
2023-04-16T23:28:12.628Z,28.45
2023-04-16T23:30:39.379Z,27.85
2023-04-16T23:33:05.935Z,28.13
2023-04-16T23:35:32.342Z,28.40
2023-04-16T23:37:58.796Z,26.73
2023-04-16T23:40:25.610Z,28.08
2023-04-16T23:42:52.121Z,28.00
2023-04-16T23:45:18.478Z,27.30
2023-04-16T23:47:45.160Z,28.30
2023-04-16T23:50:11.716Z,27.30
2023-04-16T23:52:38.085Z,26.60
2023-04-16T23:55:04.924Z,26.65
2023-04-16T23:57:31.290Z,26.08
2023-04-16T23:59:57.627Z,25.88
